createdAt,value
2022-08-19T00:02:01.152Z,73.32
2022-08-19T00:04:32.943Z,73.56
2022-08-19T00:07:01.756Z,73.40
2022-08-19T00:09:31.028Z,73.51
2022-08-19T00:12:00.585Z,73.46
2022-08-19T00:14:31.410Z,73.67
2022-08-19T00:17:00.068Z,73.62
2022-08-19T00:19:28.027Z,73.46
2022-08-19T00:21:57.475Z,73.78
2022-08-19T00:24:29.572Z,73.63
2022-08-19T00:27:25.157Z,73.63
2022-08-19T00:29:47.090Z,73.68
2022-08-19T00:32:21.435Z,73.78
2022-08-19T00:34:52.687Z,73.76
2022-08-19T00:37:23.835Z,73.77
2022-08-19T00:39:56.622Z,73.96
2022-08-19T00:42:29.293Z,73.87
2022-08-19T00:44:57.736Z,73.70
2022-08-19T00:47:25.877Z,73.82
2022-08-19T00:49:58.918Z,73.90
2022-08-19T00:52:31.220Z,73.72
2022-08-19T00:54:59.607Z,73.76
2022-08-19T00:57:34.114Z,73.98
2022-08-19T01:00:04.136Z,73.86
2022-08-19T01:02:33.952Z,73.90
2022-08-19T01:05:08.753Z,73.87
2022-08-19T01:07:39.831Z,73.94
2022-08-19T01:10:11.196Z,73.89
2022-08-19T01:12:41.585Z,73.85
2022-08-19T01:15:13.168Z,74.12
2022-08-19T01:17:42.757Z,74.02
2022-08-19T01:20:13.394Z,73.96
2022-08-19T01:22:47.206Z,73.94
2022-08-19T01:25:17.137Z,74.10
2022-08-19T01:27:48.552Z,73.99
2022-08-19T01:30:21.111Z,74.11
2022-08-19T01:32:49.127Z,74.21
2022-08-19T01:35:19.061Z,73.94
2022-08-19T01:37:51.026Z,73.97
2022-08-19T01:40:23.503Z,74.13
2022-08-19T01:42:53.118Z,74.15
2022-08-19T01:45:23.150Z,74.01
2022-08-19T01:47:55.533Z,74.13
2022-08-19T01:50:34.573Z,74.04
2022-08-19T01:53:06.917Z,74.14
2022-08-19T01:55:41.040Z,74.08
2022-08-19T01:58:14.321Z,74.10
2022-08-19T02:00:43.380Z,74.19
2022-08-19T02:03:12.360Z,74.19
2022-08-19T02:05:45.046Z,74.19
2022-08-19T02:08:14.846Z,74.21
2022-08-19T02:10:45.722Z,74.11
2022-08-19T02:13:15.376Z,74.21
2022-08-19T02:15:43.716Z,74.10
2022-08-19T02:18:11.646Z,74.24
2022-08-19T02:20:41.393Z,74.18
2022-08-19T02:23:13.963Z,74.22
2022-08-19T02:25:47.540Z,74.23
2022-08-19T02:28:18.569Z,74.17
2022-08-19T02:30:48.814Z,74.26
2022-08-19T02:33:17.143Z,74.06
2022-08-19T02:35:45.521Z,74.12
2022-08-19T02:38:28.879Z,74.30
2022-08-19T02:41:00.519Z,74.28
2022-08-19T02:43:32.262Z,74.28
2022-08-19T02:46:02.656Z,74.43
2022-08-19T02:48:31.025Z,74.34
2022-08-19T02:51:00.358Z,74.28
2022-08-19T02:53:30.226Z,74.08
2022-08-19T02:55:59.482Z,74.33
2022-08-19T02:58:28.503Z,74.18
2022-08-19T03:00:58.256Z,74.32
2022-08-19T03:03:26.417Z,74.20
2022-08-19T03:06:06.761Z,74.18
2022-08-19T03:08:34.704Z,74.27
2022-08-19T03:11:04.372Z,74.32
2022-08-19T03:13:32.981Z,74.31
2022-08-19T03:16:00.990Z,74.22
2022-08-19T03:18:28.958Z,74.35
2022-08-19T03:20:58.006Z,74.42
2022-08-19T03:23:26.321Z,74.36
2022-08-19T03:26:03.253Z,74.43
2022-08-19T03:28:51.589Z,74.39
2022-08-19T03:31:43.730Z,74.33
2022-08-19T03:34:21.676Z,74.27
2022-08-19T03:36:52.219Z,74.27
2022-08-19T03:39:20.742Z,74.33
2022-08-19T03:42:30.100Z,74.32
2022-08-19T03:44:40.271Z,74.39
2022-08-19T03:47:08.854Z,74.24
2022-08-19T03:49:37.527Z,74.27
2022-08-19T03:52:08.362Z,74.42
2022-08-19T03:54:37.218Z,74.36
2022-08-19T03:57:06.380Z,74.32
2022-08-19T03:59:37.802Z,74.48
2022-08-19T04:02:10.727Z,74.26
2022-08-19T04:04:39.750Z,74.33
2022-08-19T04:07:08.111Z,74.32
2022-08-19T04:09:37.135Z,74.41
2022-08-19T04:12:07.336Z,74.33
2022-08-19T04:14:36.159Z,74.28
2022-08-19T04:17:06.657Z,74.34
2022-08-19T04:19:37.369Z,74.22
2022-08-19T04:22:05.974Z,74.37
2022-08-19T04:24:34.550Z,74.43
2022-08-19T04:27:03.639Z,74.37
2022-08-19T04:29:32.184Z,74.32
2022-08-19T04:32:08.599Z,74.35
2022-08-19T04:35:02.054Z,74.29
2022-08-19T04:37:31.871Z,74.35
2022-08-19T04:40:23.116Z,74.33
2022-08-19T04:42:51.044Z,74.28
2022-08-19T04:45:18.880Z,74.31
2022-08-19T04:47:58.490Z,74.50
2022-08-19T04:50:44.209Z,74.22
2022-08-19T04:53:12.598Z,74.14
2022-08-19T04:55:42.684Z,74.28
2022-08-19T04:58:10.919Z,74.15
2022-08-19T05:00:40.484Z,74.13
2022-08-19T05:03:10.219Z,74.13
2022-08-19T05:05:44.438Z,74.27
2022-08-19T05:08:15.215Z,74.16
2022-08-19T05:10:43.380Z,74.07
2022-08-19T05:13:11.873Z,74.00
2022-08-19T05:15:40.651Z,74.07
2022-08-19T05:18:26.027Z,73.97
2022-08-19T05:21:12.713Z,73.91
2022-08-19T05:23:41.423Z,73.80
2022-08-19T05:26:13.289Z,73.86
2022-08-19T05:28:41.174Z,73.82
2022-08-19T05:31:09.017Z,73.84
2022-08-19T05:33:40.618Z,73.78
2022-08-19T05:36:10.129Z,73.83
2022-08-19T05:38:38.185Z,73.72
2022-08-19T05:41:09.363Z,73.74
2022-08-19T05:43:38.035Z,73.58
2022-08-19T05:46:12.295Z,73.46
2022-08-19T05:48:40.328Z,73.56
2022-08-19T05:51:10.181Z,73.42
2022-08-19T05:53:38.346Z,73.45
2022-08-19T05:56:07.838Z,73.51
2022-08-19T05:58:35.886Z,73.45
2022-08-19T06:01:06.355Z,73.41
2022-08-19T06:03:35.584Z,73.35
2022-08-19T06:06:04.414Z,73.33
2022-08-19T06:08:34.952Z,73.33
2022-08-19T06:11:21.856Z,73.20
2022-08-19T06:13:59.683Z,73.30
2022-08-19T06:16:28.767Z,73.09
2022-08-19T06:19:00.270Z,73.19
2022-08-19T06:21:29.662Z,73.18
2022-08-19T06:23:59.606Z,72.99
2022-08-19T06:26:28.273Z,73.01
2022-08-19T06:28:58.070Z,73.01
2022-08-19T06:31:32.218Z,72.92
2022-08-19T06:34:00.110Z,72.85
2022-08-19T06:36:32.206Z,72.94
2022-08-19T06:39:02.403Z,72.87
2022-08-19T06:41:31.116Z,72.99
2022-08-19T06:43:59.632Z,72.83
2022-08-19T06:46:28.318Z,72.87
2022-08-19T06:48:56.808Z,72.81
2022-08-19T06:51:25.999Z,72.80
2022-08-19T06:54:01.262Z,72.67
2022-08-19T06:56:34.580Z,72.66
2022-08-19T06:59:04.192Z,72.63
2022-08-19T07:01:32.174Z,72.58
2022-08-19T07:04:01.393Z,72.57
2022-08-19T07:06:43.926Z,72.54
2022-08-19T07:09:18.490Z,72.58
2022-08-19T07:11:47.894Z,72.52
2022-08-19T07:14:19.489Z,72.58
2022-08-19T07:16:48.807Z,72.33
2022-08-19T07:19:19.008Z,72.43
2022-08-19T07:21:50.456Z,72.30
2022-08-19T07:24:21.293Z,72.33
2022-08-19T07:26:51.775Z,72.26
2022-08-19T07:29:23.795Z,72.20
2022-08-19T07:31:56.874Z,72.13
2022-08-19T07:34:25.629Z,72.11
2022-08-19T07:36:54.491Z,72.15
2022-08-19T07:39:30.436Z,71.88
2022-08-19T07:42:00.230Z,72.00
2022-08-19T07:44:28.543Z,71.95
2022-08-19T07:47:01.695Z,71.84
2022-08-19T07:49:29.904Z,71.70
2022-08-19T07:52:00.182Z,71.71
2022-08-19T07:54:31.885Z,71.80
2022-08-19T07:56:59.831Z,71.63
2022-08-19T07:59:29.342Z,71.44
2022-08-19T08:02:00.486Z,71.66
2022-08-19T08:04:46.903Z,71.28
2022-08-19T08:07:32.161Z,71.46
2022-08-19T08:10:02.958Z,71.24
2022-08-19T08:12:35.559Z,71.38
2022-08-19T08:15:12.461Z,71.28
2022-08-19T08:17:49.109Z,71.09
2022-08-19T08:20:17.952Z,71.04
2022-08-19T08:23:04.419Z,70.94
2022-08-19T08:25:34.432Z,70.77
2022-08-19T08:28:04.023Z,70.81
2022-08-19T08:30:37.021Z,70.89
2022-08-19T08:33:06.251Z,70.94
2022-08-19T08:35:34.451Z,70.59
2022-08-19T08:38:04.617Z,70.86
2022-08-19T08:40:41.574Z,70.61
2022-08-19T08:43:15.771Z,70.66
2022-08-19T08:45:53.469Z,70.44
2022-08-19T08:48:26.729Z,70.34
2022-08-19T08:50:57.615Z,70.26
2022-08-19T08:53:31.137Z,70.28
2022-08-19T08:56:07.740Z,69.98
2022-08-19T08:58:44.908Z,70.35
2022-08-19T09:01:13.793Z,69.97
2022-08-19T09:03:46.329Z,69.93
2022-08-19T09:06:20.713Z,70.09
2022-08-19T09:09:00.591Z,70.08
2022-08-19T09:11:44.430Z,69.43
2022-08-19T09:14:47.330Z,69.60
2022-08-19T09:17:10.964Z,69.43
2022-08-19T09:19:51.264Z,69.70
2022-08-19T09:22:25.791Z,69.11
2022-08-19T09:24:55.982Z,69.35
2022-08-19T09:27:42.346Z,68.94
2022-08-19T09:30:18.108Z,68.99
2022-08-19T09:32:46.468Z,69.30
2022-08-19T09:35:16.019Z,68.78
2022-08-19T09:37:46.721Z,68.57
2022-08-19T09:40:15.585Z,68.70
2022-08-19T09:42:49.599Z,68.84
2022-08-19T09:45:23.059Z,68.32
2022-08-19T09:47:54.145Z,68.83
2022-08-19T09:50:24.117Z,68.49
2022-08-19T09:52:55.161Z,68.12
2022-08-19T09:55:31.774Z,68.35
2022-08-19T09:58:05.139Z,68.08
2022-08-19T10:00:32.987Z,67.97
2022-08-19T10:03:01.294Z,68.00
2022-08-19T10:05:48.671Z,67.79
2022-08-19T10:08:18.354Z,67.74
2022-08-19T10:10:49.479Z,67.71
2022-08-19T10:13:22.848Z,67.39
2022-08-19T10:15:52.369Z,67.46
2022-08-19T10:18:22.839Z,67.35
2022-08-19T10:20:53.260Z,67.25
2022-08-19T10:23:21.600Z,67.18
2022-08-19T10:25:49.901Z,67.03
2022-08-19T10:28:19.737Z,67.01
2022-08-19T10:30:48.486Z,66.81
2022-08-19T10:33:38.196Z,66.79
2022-08-19T10:36:06.204Z,66.67
2022-08-19T10:38:34.775Z,66.56
2022-08-19T10:41:09.514Z,66.34
2022-08-19T10:43:40.572Z,66.21
2022-08-19T10:46:14.027Z,66.07
2022-08-19T10:48:45.360Z,66.13
2022-08-19T10:51:31.553Z,65.70
2022-08-19T10:54:00.403Z,65.81
2022-08-19T10:56:47.153Z,65.65
2022-08-19T10:59:18.059Z,65.26
2022-08-19T11:01:47.612Z,65.07
2022-08-19T11:04:19.932Z,65.33
2022-08-19T11:06:48.988Z,65.32
2022-08-19T11:09:17.955Z,65.19
2022-08-19T11:11:46.474Z,64.90
2022-08-19T11:14:19.160Z,64.83
2022-08-19T11:16:47.354Z,64.75
2022-08-19T11:19:18.023Z,64.42
2022-08-19T11:21:48.190Z,64.33
2022-08-19T11:24:19.264Z,64.25
2022-08-19T11:26:47.172Z,64.43
2022-08-19T11:29:15.327Z,64.11
2022-08-19T11:31:46.725Z,63.70
2022-08-19T11:34:17.237Z,63.80
2022-08-19T11:36:49.224Z,63.42
2022-08-19T11:39:21.060Z,63.34
2022-08-19T11:41:49.130Z,63.59
2022-08-19T11:44:17.244Z,63.08
2022-08-19T11:46:48.260Z,63.22
2022-08-19T11:49:17.667Z,62.96
2022-08-19T11:51:45.546Z,62.90
2022-08-19T11:54:15.171Z,62.38
2022-08-19T11:56:44.527Z,62.12
2022-08-19T11:59:14.747Z,62.19
2022-08-19T12:01:44.417Z,62.48
2022-08-19T12:04:13.751Z,62.18
2022-08-19T12:06:42.835Z,62.12
2022-08-19T12:09:15.231Z,61.99
2022-08-19T12:11:43.096Z,61.87
2022-08-19T12:14:15.050Z,61.52
2022-08-19T12:16:50.374Z,60.95
2022-08-19T12:19:24.812Z,61.10
2022-08-19T12:21:56.328Z,60.87
2022-08-19T12:24:25.409Z,60.88
2022-08-19T12:26:54.377Z,60.66
2022-08-19T12:29:29.560Z,60.70
2022-08-19T12:32:01.492Z,60.51
2022-08-19T12:34:31.831Z,60.33
2022-08-19T12:36:59.983Z,60.04
2022-08-19T12:39:27.991Z,59.68
2022-08-19T12:41:55.989Z,59.55
2022-08-19T12:44:29.495Z,59.85
2022-08-19T12:47:00.749Z,59.63
2022-08-19T12:49:54.022Z,59.45
2022-08-19T12:52:23.207Z,59.40
2022-08-19T12:54:54.383Z,59.30
2022-08-19T12:57:24.439Z,58.80
2022-08-19T13:00:04.819Z,58.97
2022-08-19T13:02:38.262Z,58.74
2022-08-19T13:05:12.038Z,58.50
2022-08-19T13:07:41.462Z,58.51
2022-08-19T13:10:12.027Z,58.07
2022-08-19T13:12:41.885Z,58.31
2022-08-19T13:15:15.219Z,58.15
2022-08-19T13:17:46.247Z,57.53
2022-08-19T13:20:15.537Z,57.61
2022-08-19T13:22:45.402Z,57.76
2022-08-19T13:25:14.443Z,57.77
2022-08-19T13:27:42.732Z,57.40
2022-08-19T13:30:43.088Z,56.95
2022-08-19T13:33:15.384Z,57.11
2022-08-19T13:35:49.324Z,56.70
2022-08-19T13:38:19.611Z,56.39
2022-08-19T13:40:47.523Z,56.29
2022-08-19T13:43:22.764Z,56.27
2022-08-19T13:45:57.296Z,56.13
2022-08-19T13:48:27.834Z,56.09
2022-08-19T13:50:57.395Z,56.18
2022-08-19T13:53:25.585Z,55.95
2022-08-19T13:55:54.581Z,55.71
2022-08-19T13:58:22.851Z,55.45
2022-08-19T14:00:50.797Z,55.45
2022-08-19T14:03:18.668Z,55.13
2022-08-19T14:05:47.604Z,55.02
2022-08-19T14:08:17.238Z,54.99
2022-08-19T14:10:46.258Z,54.65
2022-08-19T14:13:18.232Z,54.55
2022-08-19T14:15:47.135Z,54.45
2022-08-19T14:18:15.258Z,54.04
2022-08-19T14:20:43.811Z,54.25
2022-08-19T14:23:13.150Z,53.66
2022-08-19T14:25:42.686Z,53.62
2022-08-19T14:28:10.583Z,53.44
2022-08-19T14:30:39.844Z,53.69
2022-08-19T14:33:09.362Z,53.56
2022-08-19T14:35:38.706Z,53.38
2022-08-19T14:38:08.178Z,53.09
2022-08-19T14:40:36.077Z,53.17
2022-08-19T14:43:06.710Z,53.01
2022-08-19T14:45:38.247Z,53.02
2022-08-19T14:48:05.985Z,52.49
2022-08-19T14:50:34.280Z,52.62
2022-08-19T14:53:12.290Z,52.18
2022-08-19T14:55:44.668Z,52.45
2022-08-19T14:58:28.527Z,51.88
2022-08-19T15:00:58.738Z,52.06
2022-08-19T15:03:26.939Z,51.63
2022-08-19T15:05:55.021Z,52.06
2022-08-19T15:08:23.433Z,51.44
2022-08-19T15:10:51.283Z,51.72
2022-08-19T15:13:22.230Z,51.18
2022-08-19T15:15:50.509Z,51.38
2022-08-19T15:18:18.431Z,51.42
2022-08-19T15:20:47.822Z,51.15
2022-08-19T15:23:19.792Z,50.78
2022-08-19T15:25:47.844Z,50.56
2022-08-19T15:28:16.306Z,50.88
2022-08-19T15:30:45.692Z,50.38
2022-08-19T15:33:15.186Z,50.67
2022-08-19T15:35:45.346Z,50.25
2022-08-19T15:38:13.949Z,50.16
2022-08-19T15:40:43.153Z,50.01
2022-08-19T15:43:11.343Z,50.05
2022-08-19T15:45:40.232Z,50.22
2022-08-19T15:48:09.742Z,49.85
2022-08-19T15:50:38.703Z,49.60
2022-08-19T15:53:09.568Z,49.65
2022-08-19T15:55:42.777Z,49.32
2022-08-19T15:58:31.024Z,49.53
2022-08-19T16:01:18.823Z,49.46
2022-08-19T16:04:14.323Z,49.08
2022-08-19T16:06:45.763Z,48.93
2022-08-19T16:09:13.931Z,48.92
2022-08-19T16:11:56.530Z,48.78
2022-08-19T16:14:25.408Z,49.01
2022-08-19T16:16:55.754Z,48.81
2022-08-19T16:19:25.817Z,48.72
2022-08-19T16:21:56.641Z,48.59
2022-08-19T16:24:28.529Z,48.63
2022-08-19T16:26:57.861Z,48.22
2022-08-19T16:29:33.554Z,48.19
2022-08-19T16:32:02.984Z,48.08
2022-08-19T16:34:33.575Z,48.42
2022-08-19T16:37:01.893Z,48.43
2022-08-19T16:39:30.065Z,48.03
2022-08-19T16:41:57.972Z,47.72
2022-08-19T16:44:29.861Z,48.10
2022-08-19T16:46:59.519Z,48.00
2022-08-19T16:49:54.572Z,47.67
2022-08-19T16:52:18.434Z,47.35
2022-08-19T16:54:49.819Z,47.93
2022-08-19T16:57:19.211Z,47.80
2022-08-19T16:59:49.550Z,47.25
2022-08-19T17:02:18.424Z,47.24
2022-08-19T17:04:55.723Z,47.68
2022-08-19T17:07:28.531Z,47.06
2022-08-19T17:09:56.975Z,47.34
2022-08-19T17:12:30.385Z,46.98
2022-08-19T17:15:00.907Z,47.06
2022-08-19T17:17:32.155Z,46.71
2022-08-19T17:20:03.960Z,47.05
2022-08-19T17:22:40.490Z,46.61
2022-08-19T17:25:09.027Z,46.95
2022-08-19T17:27:37.209Z,46.56
2022-08-19T17:30:06.809Z,46.56
2022-08-19T17:32:34.854Z,46.50
2022-08-19T17:35:04.511Z,46.65
2022-08-19T17:37:34.180Z,46.54
2022-08-19T17:40:02.954Z,46.57
2022-08-19T17:42:32.997Z,46.71
2022-08-19T17:45:01.062Z,46.65
2022-08-19T17:47:29.777Z,46.38
2022-08-19T17:49:57.761Z,46.65
2022-08-19T17:52:26.077Z,46.19
2022-08-19T17:54:55.329Z,46.43
2022-08-19T17:57:23.457Z,46.31
2022-08-19T17:59:51.425Z,46.28
2022-08-19T18:02:22.352Z,46.29
2022-08-19T18:04:50.397Z,46.10
2022-08-19T18:07:21.435Z,46.29
2022-08-19T18:09:53.859Z,46.11
2022-08-19T18:12:27.582Z,46.23
2022-08-19T18:14:55.519Z,46.25
2022-08-19T18:17:24.440Z,46.06
2022-08-19T18:19:52.680Z,46.05
2022-08-19T18:22:27.024Z,46.11
2022-08-19T18:24:55.640Z,45.96
2022-08-19T18:27:23.573Z,46.03
2022-08-19T18:29:54.590Z,45.99
2022-08-19T18:32:23.688Z,45.97
2022-08-19T18:34:52.341Z,45.90
2022-08-19T18:37:25.232Z,45.83
2022-08-19T18:40:10.794Z,46.14
2022-08-19T18:43:01.984Z,45.88
2022-08-19T18:45:49.107Z,46.02
2022-08-19T18:48:34.900Z,45.89
2022-08-19T18:51:03.728Z,45.74
2022-08-19T18:53:33.788Z,46.06
2022-08-19T18:56:02.235Z,45.87
2022-08-19T18:58:33.159Z,45.74
2022-08-19T19:01:10.875Z,46.00
2022-08-19T19:03:40.662Z,46.11
2022-08-19T19:06:08.709Z,45.76
2022-08-19T19:08:37.021Z,46.22
2022-08-19T19:11:06.182Z,46.07
2022-08-19T19:13:34.612Z,45.94
2022-08-19T19:16:04.605Z,46.35
2022-08-19T19:18:33.323Z,46.31
2022-08-19T19:21:01.387Z,46.08
2022-08-19T19:23:29.242Z,46.21
2022-08-19T19:25:58.528Z,46.14
2022-08-19T19:28:28.455Z,46.43
2022-08-19T19:30:58.686Z,46.19
2022-08-19T19:33:28.592Z,46.37
2022-08-19T19:35:56.477Z,46.45
2022-08-19T19:38:24.441Z,46.39
2022-08-19T19:40:55.137Z,46.20
2022-08-19T19:43:23.137Z,46.23
2022-08-19T19:45:52.073Z,46.11
2022-08-19T19:48:19.961Z,46.32
2022-08-19T19:50:54.038Z,46.58
2022-08-19T19:53:24.881Z,46.66
2022-08-19T19:56:00.450Z,46.68
2022-08-19T19:58:29.323Z,46.57
2022-08-19T20:00:59.200Z,46.46
2022-08-19T20:03:27.815Z,46.81
2022-08-19T20:06:00.212Z,46.64
2022-08-19T20:08:46.936Z,46.66
2022-08-19T20:11:31.219Z,46.85
2022-08-19T20:14:01.001Z,46.69
2022-08-19T20:16:30.922Z,46.97
2022-08-19T20:19:00.701Z,46.94
2022-08-19T20:21:32.462Z,47.21
2022-08-19T20:24:09.365Z,46.86
2022-08-19T20:26:38.184Z,47.16
2022-08-19T20:29:09.966Z,46.91
2022-08-19T20:31:57.560Z,47.38
2022-08-19T20:34:27.743Z,47.26
2022-08-19T20:36:57.036Z,47.34
2022-08-19T20:39:24.945Z,47.23
2022-08-19T20:41:54.753Z,47.44
2022-08-19T20:44:25.245Z,47.40
2022-08-19T20:46:55.294Z,47.27
2022-08-19T20:49:26.814Z,47.67
2022-08-19T20:51:56.662Z,47.45
2022-08-19T20:54:25.423Z,47.82
2022-08-19T20:56:53.583Z,47.65
2022-08-19T20:59:21.761Z,47.71
2022-08-19T21:01:51.687Z,47.87
2022-08-19T21:04:20.199Z,47.77
2022-08-19T21:06:48.113Z,47.74
2022-08-19T21:09:17.437Z,47.87
2022-08-19T21:11:45.524Z,48.04
2022-08-19T21:14:13.992Z,47.92
2022-08-19T21:16:41.886Z,48.25
2022-08-19T21:19:09.862Z,48.13
2022-08-19T21:21:39.905Z,48.30
2022-08-19T21:24:07.976Z,48.33
2022-08-19T21:26:37.177Z,48.36
2022-08-19T21:29:05.057Z,48.43
2022-08-19T21:31:32.974Z,48.42
2022-08-19T21:34:01.340Z,48.44
2022-08-19T21:36:29.183Z,48.68
2022-08-19T21:38:57.089Z,48.60
2022-08-19T21:41:25.102Z,48.68
2022-08-19T21:43:54.495Z,48.71
2022-08-19T21:46:22.567Z,48.59
2022-08-19T21:48:50.442Z,48.87
2022-08-19T21:51:18.304Z,48.95
2022-08-19T21:53:49.041Z,49.01
2022-08-19T21:56:20.940Z,49.04
2022-08-19T21:58:48.815Z,49.19
2022-08-19T22:01:20.060Z,49.30
2022-08-19T22:06:35.722Z,49.41
2022-08-19T22:09:03.545Z,49.40
2022-08-19T22:11:32.001Z,49.47
2022-08-19T22:13:59.891Z,49.51
2022-08-19T22:16:28.663Z,49.68
2022-08-19T22:18:57.562Z,49.72
2022-08-19T22:21:34.552Z,49.71
2022-08-19T22:24:10.384Z,49.87
2022-08-19T22:26:38.270Z,49.93
2022-08-19T22:29:07.500Z,49.98
2022-08-19T22:31:36.437Z,50.03
2022-08-19T22:34:05.450Z,50.05
2022-08-19T22:36:33.924Z,50.09
2022-08-19T22:39:02.084Z,50.15
2022-08-19T22:41:36.280Z,50.31
2022-08-19T22:44:04.914Z,50.39
2022-08-19T22:46:36.055Z,50.42
2022-08-19T22:49:04.138Z,50.41
2022-08-19T22:51:45.868Z,50.67
2022-08-19T22:54:13.713Z,50.68
2022-08-19T22:56:43.349Z,50.73
2022-08-19T22:59:11.489Z,50.75
2022-08-19T23:01:41.744Z,50.81
2022-08-19T23:04:09.707Z,50.79
2022-08-19T23:06:41.491Z,50.94
2022-08-19T23:09:10.325Z,50.88
2022-08-19T23:11:41.926Z,51.05
2022-08-19T23:14:12.393Z,51.21
2022-08-19T23:16:41.368Z,51.36
2022-08-19T23:19:10.018Z,51.34
2022-08-19T23:21:37.978Z,51.32
2022-08-19T23:24:06.563Z,51.54
2022-08-19T23:26:35.999Z,51.58
2022-08-19T23:29:23.015Z,51.67
2022-08-19T23:31:52.451Z,51.78
2022-08-19T23:34:20.498Z,51.74
2022-08-19T23:36:48.359Z,51.83
2022-08-19T23:39:16.308Z,51.90
2022-08-19T23:41:44.177Z,51.98
2022-08-19T23:44:14.573Z,51.90
2022-08-19T23:46:54.952Z,51.92
2022-08-19T23:49:26.292Z,52.12
2022-08-19T23:51:56.396Z,52.17
2022-08-19T23:54:34.304Z,52.16
2022-08-19T23:57:13.901Z,52.29
2022-08-19T23:59:45.437Z,52.48
